sensor_id;sensor_type;location;lat;lon;timestamp;P1;durP1;ratioP1;P2;durP2;ratioP2
72464;SDS011;60471;52.150;4.508;2022-10-15T00:00:49;44.20;;;25.20;;
72464;SDS011;60471;52.150;4.508;2022-10-15T00:03:16;39.60;;;23.05;;
72464;SDS011;60471;52.150;4.508;2022-10-15T00:05:42;41.58;;;23.77;;
72464;SDS011;60471;52.150;4.508;2022-10-15T00:08:09;40.08;;;23.17;;
72464;SDS011;60471;52.150;4.508;2022-10-15T00:10:37;38.75;;;23.50;;
72464;SDS011;60471;52.150;4.508;2022-10-15T00:13:04;45.40;;;24.55;;
72464;SDS011;60471;52.150;4.508;2022-10-15T00:15:30;46.13;;;25.80;;
72464;SDS011;60471;52.150;4.508;2022-10-15T00:17:56;42.22;;;25.08;;
72464;SDS011;60471;52.150;4.508;2022-10-15T00:20:23;38.63;;;23.70;;
72464;SDS011;60471;52.150;4.508;2022-10-15T00:22:49;46.47;;;25.13;;
72464;SDS011;60471;52.150;4.508;2022-10-15T00:25:15;43.25;;;24.98;;
72464;SDS011;60471;52.150;4.508;2022-10-15T00:27:41;52.17;;;26.83;;
72464;SDS011;60471;52.150;4.508;2022-10-15T00:30:08;41.60;;;25.20;;
72464;SDS011;60471;52.150;4.508;2022-10-15T00:32:35;45.83;;;26.42;;
72464;SDS011;60471;52.150;4.508;2022-10-15T00:35:01;43.58;;;24.95;;
72464;SDS011;60471;52.150;4.508;2022-10-15T00:37:27;46.85;;;26.65;;
72464;SDS011;60471;52.150;4.508;2022-10-15T00:39:53;41.00;;;24.45;;
72464;SDS011;60471;52.150;4.508;2022-10-15T00:42:19;48.10;;;26.70;;
72464;SDS011;60471;52.150;4.508;2022-10-15T00:44:56;48.85;;;26.00;;
72464;SDS011;60471;52.150;4.508;2022-10-15T00:50:08;40.25;;;24.38;;
72464;SDS011;60471;52.150;4.508;2022-10-15T00:52:42;47.42;;;26.10;;
72464;SDS011;60471;52.150;4.508;2022-10-15T00:55:46;46.10;;;28.02;;
72464;SDS011;60471;52.150;4.508;2022-10-15T00:58:16;44.22;;;26.08;;
72464;SDS011;60471;52.150;4.508;2022-10-15T01:00:53;51.00;;;27.27;;
72464;SDS011;60471;52.150;4.508;2022-10-15T01:03:21;47.03;;;25.95;;
72464;SDS011;60471;52.150;4.508;2022-10-15T01:05:48;48.55;;;27.42;;
72464;SDS011;60471;52.150;4.508;2022-10-15T01:08:17;42.17;;;26.35;;
72464;SDS011;60471;52.150;4.508;2022-10-15T01:25:13;50.70;;;28.90;;
72464;SDS011;60471;52.150;4.508;2022-10-15T01:34:08;49.13;;;29.27;;
72464;SDS011;60471;52.150;4.508;2022-10-15T01:37:10;51.47;;;30.00;;
72464;SDS011;60471;52.150;4.508;2022-10-15T01:42:33;60.05;;;31.65;;
72464;SDS011;60471;52.150;4.508;2022-10-15T01:45:09;51.38;;;31.67;;
72464;SDS011;60471;52.150;4.508;2022-10-15T01:47:53;51.50;;;30.75;;
72464;SDS011;60471;52.150;4.508;2022-10-15T01:50:25;51.67;;;32.40;;
72464;SDS011;60471;52.150;4.508;2022-10-15T01:52:56;56.30;;;31.30;;
72464;SDS011;60471;52.150;4.508;2022-10-15T01:55:26;59.90;;;33.72;;
72464;SDS011;60471;52.150;4.508;2022-10-15T01:57:56;59.17;;;34.40;;
72464;SDS011;60471;52.150;4.508;2022-10-15T02:00:25;60.55;;;35.05;;
72464;SDS011;60471;52.150;4.508;2022-10-15T02:02:51;58.38;;;33.15;;
72464;SDS011;60471;52.150;4.508;2022-10-15T02:05:24;64.80;;;37.85;;
72464;SDS011;60471;52.150;4.508;2022-10-15T02:08:22;64.50;;;38.75;;
72464;SDS011;60471;52.150;4.508;2022-10-15T02:11:09;68.05;;;38.45;;
72464;SDS011;60471;52.150;4.508;2022-10-15T02:19:11;65.78;;;37.72;;
72464;SDS011;60471;52.150;4.508;2022-10-15T02:24:19;66.80;;;38.65;;
72464;SDS011;60471;52.150;4.508;2022-10-15T02:27:08;63.92;;;36.63;;
72464;SDS011;60471;52.150;4.508;2022-10-15T02:29:40;65.43;;;37.53;;
72464;SDS011;60471;52.150;4.508;2022-10-15T02:32:10;73.47;;;41.70;;
72464;SDS011;60471;52.150;4.508;2022-10-15T02:34:40;69.43;;;39.55;;
72464;SDS011;60471;52.150;4.508;2022-10-15T02:37:10;68.13;;;40.20;;
72464;SDS011;60471;52.150;4.508;2022-10-15T02:39:38;70.80;;;39.97;;
72464;SDS011;60471;52.150;4.508;2022-10-15T02:42:04;72.93;;;40.33;;
72464;SDS011;60471;52.150;4.508;2022-10-15T02:44:31;77.07;;;42.40;;
72464;SDS011;60471;52.150;4.508;2022-10-15T02:46:57;73.68;;;41.17;;
72464;SDS011;60471;52.150;4.508;2022-10-15T02:49:24;72.82;;;41.58;;
72464;SDS011;60471;52.150;4.508;2022-10-15T02:51:51;82.60;;;41.70;;
72464;SDS011;60471;52.150;4.508;2022-10-15T02:54:17;76.07;;;41.17;;
72464;SDS011;60471;52.150;4.508;2022-10-15T02:56:43;76.20;;;41.88;;
72464;SDS011;60471;52.150;4.508;2022-10-15T02:59:09;68.90;;;40.28;;
72464;SDS011;60471;52.150;4.508;2022-10-15T03:01:36;80.40;;;42.70;;
72464;SDS011;60471;52.150;4.508;2022-10-15T03:04:02;68.50;;;39.85;;
72464;SDS011;60471;52.150;4.508;2022-10-15T03:06:29;72.28;;;41.60;;
72464;SDS011;60471;52.150;4.508;2022-10-15T03:08:55;74.22;;;40.10;;
72464;SDS011;60471;52.150;4.508;2022-10-15T03:11:21;75.38;;;42.53;;
72464;SDS011;60471;52.150;4.508;2022-10-15T03:13:47;74.38;;;41.17;;
72464;SDS011;60471;52.150;4.508;2022-10-15T03:16:13;75.10;;;41.55;;
72464;SDS011;60471;52.150;4.508;2022-10-15T03:18:40;78.55;;;41.33;;
72464;SDS011;60471;52.150;4.508;2022-10-15T03:21:06;76.88;;;42.10;;
72464;SDS011;60471;52.150;4.508;2022-10-15T03:23:32;84.60;;;42.13;;
72464;SDS011;60471;52.150;4.508;2022-10-15T03:25:59;69.65;;;41.75;;
72464;SDS011;60471;52.150;4.508;2022-10-15T03:28:25;69.20;;;40.60;;
72464;SDS011;60471;52.150;4.508;2022-10-15T03:30:51;74.45;;;41.95;;
72464;SDS011;60471;52.150;4.508;2022-10-15T03:33:17;70.32;;;40.67;;
72464;SDS011;60471;52.150;4.508;2022-10-15T03:35:44;72.45;;;41.25;;
72464;SDS011;60471;52.150;4.508;2022-10-15T03:38:10;70.40;;;41.60;;
72464;SDS011;60471;52.150;4.508;2022-10-15T03:40:36;70.85;;;41.80;;
72464;SDS011;60471;52.150;4.508;2022-10-15T03:43:02;82.15;;;43.45;;
72464;SDS011;60471;52.150;4.508;2022-10-15T03:45:29;83.05;;;44.33;;
72464;SDS011;60471;52.150;4.508;2022-10-15T03:47:55;87.47;;;44.55;;
72464;SDS011;60471;52.150;4.508;2022-10-15T03:50:21;77.72;;;44.50;;
72464;SDS011;60471;52.150;4.508;2022-10-15T03:52:47;80.00;;;42.83;;
72464;SDS011;60471;52.150;4.508;2022-10-15T03:55:13;77.28;;;43.42;;
72464;SDS011;60471;52.150;4.508;2022-10-15T03:57:40;76.60;;;43.17;;
72464;SDS011;60471;52.150;4.508;2022-10-15T04:00:07;77.03;;;43.78;;
72464;SDS011;60471;52.150;4.508;2022-10-15T04:02:34;79.90;;;44.40;;
72464;SDS011;60471;52.150;4.508;2022-10-15T04:05:00;71.45;;;41.67;;
72464;SDS011;60471;52.150;4.508;2022-10-15T04:07:27;77.20;;;43.25;;
72464;SDS011;60471;52.150;4.508;2022-10-15T04:09:53;89.30;;;45.30;;
72464;SDS011;60471;52.150;4.508;2022-10-15T04:12:19;80.55;;;44.50;;
72464;SDS011;60471;52.150;4.508;2022-10-15T04:14:45;85.45;;;45.15;;
72464;SDS011;60471;52.150;4.508;2022-10-15T04:17:11;77.70;;;45.42;;
72464;SDS011;60471;52.150;4.508;2022-10-15T04:19:38;71.80;;;44.08;;
72464;SDS011;60471;52.150;4.508;2022-10-15T04:22:04;77.57;;;45.03;;
72464;SDS011;60471;52.150;4.508;2022-10-15T04:24:30;73.43;;;43.42;;
72464;SDS011;60471;52.150;4.508;2022-10-15T04:26:56;82.45;;;44.25;;
72464;SDS011;60471;52.150;4.508;2022-10-15T04:29:22;78.32;;;39.88;;
72464;SDS011;60471;52.150;4.508;2022-10-15T04:31:49;82.55;;;43.25;;
72464;SDS011;60471;52.150;4.508;2022-10-15T04:34:15;75.25;;;44.17;;
72464;SDS011;60471;52.150;4.508;2022-10-15T04:36:41;83.65;;;46.80;;
72464;SDS011;60471;52.150;4.508;2022-10-15T04:39:07;76.15;;;42.70;;
72464;SDS011;60471;52.150;4.508;2022-10-15T04:41:33;74.68;;;42.88;;
72464;SDS011;60471;52.150;4.508;2022-10-15T04:44:00;80.25;;;44.65;;
72464;SDS011;60471;52.150;4.508;2022-10-15T04:46:26;74.18;;;40.58;;
72464;SDS011;60471;52.150;4.508;2022-10-15T04:48:52;74.28;;;40.92;;
72464;SDS011;60471;52.150;4.508;2022-10-15T04:51:22;75.60;;;44.05;;
72464;SDS011;60471;52.150;4.508;2022-10-15T04:53:50;74.85;;;41.33;;
72464;SDS011;60471;52.150;4.508;2022-10-15T04:56:18;79.97;;;43.88;;
72464;SDS011;60471;52.150;4.508;2022-10-15T04:58:46;71.10;;;41.13;;
72464;SDS011;60471;52.150;4.508;2022-10-15T05:01:16;71.18;;;41.05;;
72464;SDS011;60471;52.150;4.508;2022-10-15T05:03:45;73.60;;;41.17;;
72464;SDS011;60471;52.150;4.508;2022-10-15T05:06:17;74.88;;;41.42;;
72464;SDS011;60471;52.150;4.508;2022-10-15T05:08:46;74.10;;;44.33;;
72464;SDS011;60471;52.150;4.508;2022-10-15T05:11:18;74.38;;;41.58;;
72464;SDS011;60471;52.150;4.508;2022-10-15T05:13:47;77.47;;;44.88;;
72464;SDS011;60471;52.150;4.508;2022-10-15T05:16:19;86.45;;;53.60;;
72464;SDS011;60471;52.150;4.508;2022-10-15T05:18:48;74.28;;;43.22;;
72464;SDS011;60471;52.150;4.508;2022-10-15T05:21:17;75.25;;;44.60;;
72464;SDS011;60471;52.150;4.508;2022-10-15T05:23:45;79.95;;;44.88;;
72464;SDS011;60471;52.150;4.508;2022-10-15T05:26:13;78.50;;;43.05;;
72464;SDS011;60471;52.150;4.508;2022-10-15T05:28:43;75.70;;;45.28;;
72464;SDS011;60471;52.150;4.508;2022-10-15T05:31:11;80.82;;;44.25;;
72464;SDS011;60471;52.150;4.508;2022-10-15T05:33:40;70.85;;;42.95;;
72464;SDS011;60471;52.150;4.508;2022-10-15T05:36:07;72.47;;;43.05;;
72464;SDS011;60471;52.150;4.508;2022-10-15T05:38:38;74.70;;;43.30;;
72464;SDS011;60471;52.150;4.508;2022-10-15T05:41:06;72.43;;;42.63;;
72464;SDS011;60471;52.150;4.508;2022-10-15T05:43:32;67.55;;;43.45;;
72464;SDS011;60471;52.150;4.508;2022-10-15T05:45:58;72.25;;;41.88;;
72464;SDS011;60471;52.150;4.508;2022-10-15T05:48:25;69.78;;;42.30;;
72464;SDS011;60471;52.150;4.508;2022-10-15T05:50:51;70.82;;;43.58;;
72464;SDS011;60471;52.150;4.508;2022-10-15T05:53:18;68.00;;;38.63;;
72464;SDS011;60471;52.150;4.508;2022-10-15T05:55:44;74.88;;;43.15;;
72464;SDS011;60471;52.150;4.508;2022-10-15T05:58:11;73.88;;;41.75;;
72464;SDS011;60471;52.150;4.508;2022-10-15T06:00:37;79.90;;;44.50;;
72464;SDS011;60471;52.150;4.508;2022-10-15T06:03:04;81.90;;;44.45;;
72464;SDS011;60471;52.150;4.508;2022-10-15T06:05:30;82.28;;;42.58;;
72464;SDS011;60471;52.150;4.508;2022-10-15T06:07:56;72.43;;;43.70;;
72464;SDS011;60471;52.150;4.508;2022-10-15T06:10:23;77.20;;;45.45;;
72464;SDS011;60471;52.150;4.508;2022-10-15T06:12:49;83.57;;;46.53;;
72464;SDS011;60471;52.150;4.508;2022-10-15T06:15:16;87.57;;;47.47;;
72464;SDS011;60471;52.150;4.508;2022-10-15T06:17:43;81.25;;;45.10;;
72464;SDS011;60471;52.150;4.508;2022-10-15T06:20:10;83.68;;;46.55;;
72464;SDS011;60471;52.150;4.508;2022-10-15T06:22:38;84.20;;;45.70;;
72464;SDS011;60471;52.150;4.508;2022-10-15T06:25:04;92.00;;;47.03;;
72464;SDS011;60471;52.150;4.508;2022-10-15T06:27:31;89.55;;;46.97;;
72464;SDS011;60471;52.150;4.508;2022-10-15T06:29:58;83.95;;;44.20;;
72464;SDS011;60471;52.150;4.508;2022-10-15T06:32:24;112.28;;;64.82;;
72464;SDS011;60471;52.150;4.508;2022-10-15T06:34:50;86.50;;;46.25;;
72464;SDS011;60471;52.150;4.508;2022-10-15T06:37:17;77.13;;;42.40;;
72464;SDS011;60471;52.150;4.508;2022-10-15T06:39:43;87.72;;;47.17;;
72464;SDS011;60471;52.150;4.508;2022-10-15T06:42:11;85.03;;;44.63;;
72464;SDS011;60471;52.150;4.508;2022-10-15T06:44:38;79.30;;;43.50;;
72464;SDS011;60471;52.150;4.508;2022-10-15T06:47:05;68.68;;;43.25;;
72464;SDS011;60471;52.150;4.508;2022-10-15T06:49:32;76.20;;;45.72;;
72464;SDS011;60471;52.150;4.508;2022-10-15T06:51:58;72.78;;;40.65;;
72464;SDS011;60471;52.150;4.508;2022-10-15T06:54:24;85.72;;;49.72;;
72464;SDS011;60471;52.150;4.508;2022-10-15T06:56:50;62.42;;;36.50;;
72464;SDS011;60471;52.150;4.508;2022-10-15T06:59:16;64.30;;;36.65;;
72464;SDS011;60471;52.150;4.508;2022-10-15T07:01:43;61.70;;;37.65;;
72464;SDS011;60471;52.150;4.508;2022-10-15T07:04:09;62.53;;;37.38;;
72464;SDS011;60471;52.150;4.508;2022-10-15T07:06:35;62.88;;;35.60;;
72464;SDS011;60471;52.150;4.508;2022-10-15T07:09:02;62.67;;;33.95;;
72464;SDS011;60471;52.150;4.508;2022-10-15T07:11:30;62.67;;;33.03;;
72464;SDS011;60471;52.150;4.508;2022-10-15T07:13:56;63.70;;;36.85;;
72464;SDS011;60471;52.150;4.508;2022-10-15T07:16:23;65.05;;;34.45;;
72464;SDS011;60471;52.150;4.508;2022-10-15T07:18:49;61.63;;;32.47;;
72464;SDS011;60471;52.150;4.508;2022-10-15T07:21:16;68.88;;;35.38;;
72464;SDS011;60471;52.150;4.508;2022-10-15T07:23:42;66.68;;;34.00;;
72464;SDS011;60471;52.150;4.508;2022-10-15T07:26:08;66.78;;;33.50;;
72464;SDS011;60471;52.150;4.508;2022-10-15T07:28:35;66.90;;;33.78;;
72464;SDS011;60471;52.150;4.508;2022-10-15T07:31:02;74.00;;;34.47;;
72464;SDS011;60471;52.150;4.508;2022-10-15T07:33:32;76.18;;;36.83;;
72464;SDS011;60471;52.150;4.508;2022-10-15T07:36:02;72.97;;;37.65;;
72464;SDS011;60471;52.150;4.508;2022-10-15T07:38:31;72.85;;;37.03;;
72464;SDS011;60471;52.150;4.508;2022-10-15T07:40:59;70.35;;;35.85;;
72464;SDS011;60471;52.150;4.508;2022-10-15T07:43:27;93.85;;;47.92;;
72464;SDS011;60471;52.150;4.508;2022-10-15T07:45:54;77.10;;;36.70;;
72464;SDS011;60471;52.150;4.508;2022-10-15T07:48:21;83.88;;;37.50;;
72464;SDS011;60471;52.150;4.508;2022-10-15T07:50:57;76.38;;;36.47;;
72464;SDS011;60471;52.150;4.508;2022-10-15T07:53:26;71.75;;;37.70;;
72464;SDS011;60471;52.150;4.508;2022-10-15T07:55:53;66.20;;;35.50;;
72464;SDS011;60471;52.150;4.508;2022-10-15T07:58:23;64.68;;;32.65;;
72464;SDS011;60471;52.150;4.508;2022-10-15T08:00:49;58.90;;;31.50;;
72464;SDS011;60471;52.150;4.508;2022-10-15T08:03:15;56.92;;;32.00;;
72464;SDS011;60471;52.150;4.508;2022-10-15T08:05:42;55.50;;;30.35;;
72464;SDS011;60471;52.150;4.508;2022-10-15T08:08:08;57.42;;;31.48;;
72464;SDS011;60471;52.150;4.508;2022-10-15T08:10:35;52.70;;;28.08;;
72464;SDS011;60471;52.150;4.508;2022-10-15T08:13:02;58.97;;;33.03;;
72464;SDS011;60471;52.150;4.508;2022-10-15T08:15:28;61.65;;;31.55;;
72464;SDS011;60471;52.150;4.508;2022-10-15T08:17:54;63.08;;;32.45;;
72464;SDS011;60471;52.150;4.508;2022-10-15T08:20:20;64.25;;;32.38;;
72464;SDS011;60471;52.150;4.508;2022-10-15T08:22:46;62.97;;;32.67;;
72464;SDS011;60471;52.150;4.508;2022-10-15T08:25:13;59.05;;;29.98;;
72464;SDS011;60471;52.150;4.508;2022-10-15T08:27:39;66.68;;;33.15;;
72464;SDS011;60471;52.150;4.508;2022-10-15T08:30:05;67.22;;;32.03;;
72464;SDS011;60471;52.150;4.508;2022-10-15T08:32:32;82.38;;;36.92;;
72464;SDS011;60471;52.150;4.508;2022-10-15T08:34:58;75.15;;;34.08;;
72464;SDS011;60471;52.150;4.508;2022-10-15T08:37:24;84.18;;;36.47;;
72464;SDS011;60471;52.150;4.508;2022-10-15T08:39:51;73.72;;;33.33;;
72464;SDS011;60471;52.150;4.508;2022-10-15T08:42:21;73.70;;;33.40;;
72464;SDS011;60471;52.150;4.508;2022-10-15T08:45:01;74.95;;;34.47;;
72464;SDS011;60471;52.150;4.508;2022-10-15T08:47:37;73.25;;;33.28;;
72464;SDS011;60471;52.150;4.508;2022-10-15T08:50:15;67.28;;;35.05;;
72464;SDS011;60471;52.150;4.508;2022-10-15T08:53:04;66.45;;;32.67;;
72464;SDS011;60471;52.150;4.508;2022-10-15T08:55:37;64.22;;;35.47;;
72464;SDS011;60471;52.150;4.508;2022-10-15T09:01:27;55.83;;;30.58;;
72464;SDS011;60471;52.150;4.508;2022-10-15T09:04:12;64.70;;;34.63;;
72464;SDS011;60471;52.150;4.508;2022-10-15T09:06:41;57.50;;;32.40;;
72464;SDS011;60471;52.150;4.508;2022-10-15T09:09:20;63.03;;;33.35;;
72464;SDS011;60471;52.150;4.508;2022-10-15T09:15:18;58.08;;;31.17;;
72464;SDS011;60471;52.150;4.508;2022-10-15T09:17:48;63.08;;;34.72;;
72464;SDS011;60471;52.150;4.508;2022-10-15T09:20:18;55.65;;;32.20;;
72464;SDS011;60471;52.150;4.508;2022-10-15T09:22:50;55.15;;;32.45;;
72464;SDS011;60471;52.150;4.508;2022-10-15T09:25:18;48.58;;;29.27;;
72464;SDS011;60471;52.150;4.508;2022-10-15T09:27:48;50.33;;;31.77;;
72464;SDS011;60471;52.150;4.508;2022-10-15T09:33:32;48.97;;;30.92;;
72464;SDS011;60471;52.150;4.508;2022-10-15T09:36:08;49.63;;;30.98;;
72464;SDS011;60471;52.150;4.508;2022-10-15T09:44:36;48.88;;;31.17;;
72464;SDS011;60471;52.150;4.508;2022-10-15T09:47:19;52.13;;;32.22;;
72464;SDS011;60471;52.150;4.508;2022-10-15T09:49:47;45.50;;;30.80;;
72464;SDS011;60471;52.150;4.508;2022-10-15T09:52:34;45.22;;;29.88;;
72464;SDS011;60471;52.150;4.508;2022-10-15T09:58:38;44.60;;;27.73;;
72464;SDS011;60471;52.150;4.508;2022-10-15T10:01:33;38.42;;;25.90;;
72464;SDS011;60471;52.150;4.508;2022-10-15T10:04:10;44.20;;;25.73;;
72464;SDS011;60471;52.150;4.508;2022-10-15T10:06:49;39.25;;;23.80;;
72464;SDS011;60471;52.150;4.508;2022-10-15T10:09:20;38.67;;;22.10;;
72464;SDS011;60471;52.150;4.508;2022-10-15T10:12:04;38.33;;;22.08;;
72464;SDS011;60471;52.150;4.508;2022-10-15T10:14:45;36.80;;;21.65;;
72464;SDS011;60471;52.150;4.508;2022-10-15T10:17:24;34.67;;;21.08;;
72464;SDS011;60471;52.150;4.508;2022-10-15T10:22:45;35.42;;;19.10;;
72464;SDS011;60471;52.150;4.508;2022-10-15T10:27:55;43.67;;;22.08;;
72464;SDS011;60471;52.150;4.508;2022-10-15T10:30:27;36.80;;;19.05;;
72464;SDS011;60471;52.150;4.508;2022-10-15T10:33:01;39.33;;;19.88;;
72464;SDS011;60471;52.150;4.508;2022-10-15T10:35:33;35.60;;;19.05;;
72464;SDS011;60471;52.150;4.508;2022-10-15T10:38:20;33.63;;;16.48;;
72464;SDS011;60471;52.150;4.508;2022-10-15T10:40:50;31.00;;;16.02;;
72464;SDS011;60471;52.150;4.508;2022-10-15T10:43:22;33.95;;;17.38;;
72464;SDS011;60471;52.150;4.508;2022-10-15T10:48:24;33.67;;;16.55;;
72464;SDS011;60471;52.150;4.508;2022-10-15T10:53:52;29.35;;;16.33;;
72464;SDS011;60471;52.150;4.508;2022-10-15T10:56:32;23.52;;;12.15;;
72464;SDS011;60471;52.150;4.508;2022-10-15T10:59:09;34.30;;;15.55;;
72464;SDS011;60471;52.150;4.508;2022-10-15T11:01:42;20.00;;;10.35;;
72464;SDS011;60471;52.150;4.508;2022-10-15T11:04:12;21.90;;;11.93;;
72464;SDS011;60471;52.150;4.508;2022-10-15T11:06:58;18.30;;;10.15;;
72464;SDS011;60471;52.150;4.508;2022-10-15T11:12:29;25.70;;;12.15;;
72464;SDS011;60471;52.150;4.508;2022-10-15T11:26:40;18.33;;;9.60;;
72464;SDS011;60471;52.150;4.508;2022-10-15T11:37:50;18.35;;;8.88;;
72464;SDS011;60471;52.150;4.508;2022-10-15T11:43:53;19.35;;;10.20;;
72464;SDS011;60471;52.150;4.508;2022-10-15T11:46:45;17.33;;;10.18;;
72464;SDS011;60471;52.150;4.508;2022-10-15T11:58:28;17.45;;;11.05;;
72464;SDS011;60471;52.150;4.508;2022-10-15T12:01:10;19.98;;;13.00;;
72464;SDS011;60471;52.150;4.508;2022-10-15T12:04:01;20.52;;;12.73;;
72464;SDS011;60471;52.150;4.508;2022-10-15T12:06:38;22.23;;;12.68;;
72464;SDS011;60471;52.150;4.508;2022-10-15T12:09:11;20.27;;;13.05;;
72464;SDS011;60471;52.150;4.508;2022-10-15T12:12:25;22.15;;;14.38;;
72464;SDS011;60471;52.150;4.508;2022-10-15T12:23:59;17.40;;;11.68;;
72464;SDS011;60471;52.150;4.508;2022-10-15T12:26:31;17.83;;;10.60;;
72464;SDS011;60471;52.150;4.508;2022-10-15T12:29:17;18.52;;;10.60;;
72464;SDS011;60471;52.150;4.508;2022-10-15T12:31:50;14.85;;;10.30;;
72464;SDS011;60471;52.150;4.508;2022-10-15T12:34:23;13.70;;;7.88;;
72464;SDS011;60471;52.150;4.508;2022-10-15T12:36:58;10.73;;;5.20;;
72464;SDS011;60471;52.150;4.508;2022-10-15T12:39:28;8.02;;;3.90;;
72464;SDS011;60471;52.150;4.508;2022-10-15T12:41:55;7.97;;;3.80;;
72464;SDS011;60471;52.150;4.508;2022-10-15T12:44:22;7.40;;;3.22;;
72464;SDS011;60471;52.150;4.508;2022-10-15T12:46:51;7.45;;;3.40;;
72464;SDS011;60471;52.150;4.508;2022-10-15T12:51:57;7.97;;;3.10;;
72464;SDS011;60471;52.150;4.508;2022-10-15T12:55:18;7.60;;;2.92;;
72464;SDS011;60471;52.150;4.508;2022-10-15T13:02:51;6.03;;;1.80;;
72464;SDS011;60471;52.150;4.508;2022-10-15T13:05:27;7.18;;;1.70;;
72464;SDS011;60471;52.150;4.508;2022-10-15T13:07:57;4.38;;;1.45;;
72464;SDS011;60471;52.150;4.508;2022-10-15T13:10:28;6.53;;;1.45;;
72464;SDS011;60471;52.150;4.508;2022-10-15T13:13:14;5.90;;;1.30;;
72464;SDS011;60471;52.150;4.508;2022-10-15T13:15:50;5.65;;;1.17;;
72464;SDS011;60471;52.150;4.508;2022-10-15T13:18:26;5.47;;;1.13;;
72464;SDS011;60471;52.150;4.508;2022-10-15T13:20:56;4.13;;;1.00;;
72464;SDS011;60471;52.150;4.508;2022-10-15T13:23:26;7.97;;;1.02;;
72464;SDS011;60471;52.150;4.508;2022-10-15T13:26:16;7.53;;;1.05;;
72464;SDS011;60471;52.150;4.508;2022-10-15T13:28:46;4.57;;;1.20;;
72464;SDS011;60471;52.150;4.508;2022-10-15T13:33:51;10.35;;;1.17;;
72464;SDS011;60471;52.150;4.508;2022-10-15T13:38:59;7.85;;;1.25;;
72464;SDS011;60471;52.150;4.508;2022-10-15T13:41:37;11.82;;;1.55;;
72464;SDS011;60471;52.150;4.508;2022-10-15T13:44:17;6.18;;;1.13;;
72464;SDS011;60471;52.150;4.508;2022-10-15T13:49:16;9.75;;;2.50;;
72464;SDS011;60471;52.150;4.508;2022-10-15T13:51:45;8.40;;;1.73;;
72464;SDS011;60471;52.150;4.508;2022-10-15T13:54:16;7.55;;;1.42;;
72464;SDS011;60471;52.150;4.508;2022-10-15T13:56:51;9.43;;;1.25;;
72464;SDS011;60471;52.150;4.508;2022-10-15T13:59:22;14.45;;;1.52;;
72464;SDS011;60471;52.150;4.508;2022-10-15T14:01:53;10.50;;;1.50;;
72464;SDS011;60471;52.150;4.508;2022-10-15T14:04:26;8.38;;;1.30;;
72464;SDS011;60471;52.150;4.508;2022-10-15T14:06:59;9.75;;;1.85;;
72464;SDS011;60471;52.150;4.508;2022-10-15T14:09:34;7.05;;;1.50;;
72464;SDS011;60471;52.150;4.508;2022-10-15T14:12:05;6.88;;;1.25;;
72464;SDS011;60471;52.150;4.508;2022-10-15T14:14:33;9.82;;;1.77;;
72464;SDS011;60471;52.150;4.508;2022-10-15T14:17:06;7.95;;;1.10;;
72464;SDS011;60471;52.150;4.508;2022-10-15T14:19:45;7.88;;;1.90;;
72464;SDS011;60471;52.150;4.508;2022-10-15T14:22:18;5.65;;;1.25;;
72464;SDS011;60471;52.150;4.508;2022-10-15T14:24:52;7.68;;;1.42;;
72464;SDS011;60471;52.150;4.508;2022-10-15T14:27:26;8.02;;;1.20;;
72464;SDS011;60471;52.150;4.508;2022-10-15T14:29:56;11.73;;;1.65;;
72464;SDS011;60471;52.150;4.508;2022-10-15T14:32:27;7.40;;;1.10;;
72464;SDS011;60471;52.150;4.508;2022-10-15T14:34:57;8.82;;;1.35;;
72464;SDS011;60471;52.150;4.508;2022-10-15T14:47:55;8.73;;;1.20;;
72464;SDS011;60471;52.150;4.508;2022-10-15T14:50:24;8.23;;;1.15;;
72464;SDS011;60471;52.150;4.508;2022-10-15T14:52:55;9.50;;;1.58;;
72464;SDS011;60471;52.150;4.508;2022-10-15T14:58:00;7.45;;;1.50;;
72464;SDS011;60471;52.150;4.508;2022-10-15T15:00:38;8.18;;;1.40;;
72464;SDS011;60471;52.150;4.508;2022-10-15T15:03:12;11.35;;;1.60;;
72464;SDS011;60471;52.150;4.508;2022-10-15T15:05:50;11.00;;;1.40;;
72464;SDS011;60471;52.150;4.508;2022-10-15T15:08:22;7.20;;;1.30;;
72464;SDS011;60471;52.150;4.508;2022-10-15T15:10:50;6.38;;;1.30;;
72464;SDS011;60471;52.150;4.508;2022-10-15T15:13:21;6.82;;;1.00;;
72464;SDS011;60471;52.150;4.508;2022-10-15T15:15:51;8.40;;;1.42;;
72464;SDS011;60471;52.150;4.508;2022-10-15T15:18:18;8.77;;;1.67;;
72464;SDS011;60471;52.150;4.508;2022-10-15T15:20:46;14.50;;;1.73;;
72464;SDS011;60471;52.150;4.508;2022-10-15T15:23:16;10.85;;;1.83;;
72464;SDS011;60471;52.150;4.508;2022-10-15T15:25:46;7.97;;;1.40;;
72464;SDS011;60471;52.150;4.508;2022-10-15T15:28:14;9.93;;;1.95;;
72464;SDS011;60471;52.150;4.508;2022-10-15T15:30:49;4.65;;;1.10;;
72464;SDS011;60471;52.150;4.508;2022-10-15T15:33:21;9.68;;;1.50;;
72464;SDS011;60471;52.150;4.508;2022-10-15T15:35:52;5.75;;;1.08;;
72464;SDS011;60471;52.150;4.508;2022-10-15T15:38:25;7.20;;;1.20;;
72464;SDS011;60471;52.150;4.508;2022-10-15T15:41:01;7.45;;;1.02;;
72464;SDS011;60471;52.150;4.508;2022-10-15T15:43:37;7.55;;;1.50;;
72464;SDS011;60471;52.150;4.508;2022-10-15T15:46:04;10.73;;;1.60;;
72464;SDS011;60471;52.150;4.508;2022-10-15T15:48:30;10.13;;;1.60;;
72464;SDS011;60471;52.150;4.508;2022-10-15T15:50:57;6.35;;;1.20;;
72464;SDS011;60471;52.150;4.508;2022-10-15T15:53:28;9.83;;;1.30;;
72464;SDS011;60471;52.150;4.508;2022-10-15T15:55:55;10.48;;;3.30;;
72464;SDS011;60471;52.150;4.508;2022-10-15T15:58:21;9.75;;;1.83;;
72464;SDS011;60471;52.150;4.508;2022-10-15T16:00:47;7.03;;;1.10;;
72464;SDS011;60471;52.150;4.508;2022-10-15T16:03:14;6.88;;;1.38;;
72464;SDS011;60471;52.150;4.508;2022-10-15T16:05:40;11.23;;;1.50;;
72464;SDS011;60471;52.150;4.508;2022-10-15T16:08:07;4.88;;;1.23;;
72464;SDS011;60471;52.150;4.508;2022-10-15T16:10:35;9.38;;;1.40;;
72464;SDS011;60471;52.150;4.508;2022-10-15T16:13:02;10.45;;;2.08;;
72464;SDS011;60471;52.150;4.508;2022-10-15T16:15:28;8.52;;;1.95;;
72464;SDS011;60471;52.150;4.508;2022-10-15T16:17:54;6.13;;;1.20;;
72464;SDS011;60471;52.150;4.508;2022-10-15T16:20:20;9.45;;;1.40;;
72464;SDS011;60471;52.150;4.508;2022-10-15T16:22:50;15.43;;;1.95;;
72464;SDS011;60471;52.150;4.508;2022-10-15T16:25:18;14.50;;;1.98;;
72464;SDS011;60471;52.150;4.508;2022-10-15T16:27:46;8.93;;;1.45;;
72464;SDS011;60471;52.150;4.508;2022-10-15T16:30:17;10.65;;;1.90;;
72464;SDS011;60471;52.150;4.508;2022-10-15T16:32:44;13.52;;;1.80;;
72464;SDS011;60471;52.150;4.508;2022-10-15T16:35:10;11.98;;;1.77;;
72464;SDS011;60471;52.150;4.508;2022-10-15T16:37:36;6.82;;;1.30;;
72464;SDS011;60471;52.150;4.508;2022-10-15T16:40:03;15.73;;;2.33;;
72464;SDS011;60471;52.150;4.508;2022-10-15T16:42:29;16.27;;;2.17;;
72464;SDS011;60471;52.150;4.508;2022-10-15T16:44:56;11.68;;;1.70;;
72464;SDS011;60471;52.150;4.508;2022-10-15T16:47:22;12.77;;;2.15;;
72464;SDS011;60471;52.150;4.508;2022-10-15T16:49:48;12.02;;;1.73;;
72464;SDS011;60471;52.150;4.508;2022-10-15T16:52:14;18.75;;;2.03;;
72464;SDS011;60471;52.150;4.508;2022-10-15T16:54:40;23.58;;;6.20;;
72464;SDS011;60471;52.150;4.508;2022-10-15T16:57:07;26.73;;;2.65;;
72464;SDS011;60471;52.150;4.508;2022-10-15T16:59:33;12.50;;;2.08;;
72464;SDS011;60471;52.150;4.508;2022-10-15T17:01:59;19.17;;;2.58;;
72464;SDS011;60471;52.150;4.508;2022-10-15T17:04:26;17.80;;;2.42;;